Time;durP1;ratioP1;P1;durP2;ratioP2;P2;SDS_P1;SDS_P2;PMS_P1;PMS_P2;Temp;Humidity;BMP_temperature;BMP_pressure;BME280_temperature;BME280_humidity;BME280_pressure;Samples;Min_cycle;Max_cycle;Signal;HPM_P1;HPM_P2
2022/10/20 00:01:12;;;;;;;1.23;1.13;;;;;;;18.65;44.97;95549.28;5110029;28;20556;-72
2022/10/20 00:03:39;;;;;;;0.73;0.73;;;;;;;18.69;45.32;95555.59;5110313;28;20535;-71
2022/10/20 00:06:12;;;;;;;3.30;1.67;;;;;;;18.33;45.70;95552.66;5095604;28;20505;-70
2022/10/20 00:08:41;;;;;;;1.47;1.37;;;;;;;18.32;46.26;95551.06;5096406;28;21050;-69
2022/10/20 00:11:09;;;;;;;0.37;0.37;;;;;;;18.39;46.09;95556.81;5087791;28;21011;-62
2022/10/20 00:13:37;;;;;;;1.53;1.43;;;;;;;18.52;45.96;95556.09;5101208;28;20441;-71
2022/10/20 00:16:04;;;;;;;1.87;1.77;;;;;;;18.60;45.67;95547.50;5109705;27;20515;-70
2022/10/20 00:18:31;;;;;;;4.00;1.43;;;;;;;18.24;46.41;95543.78;5109554;28;20521;-67
2022/10/20 00:20:58;;;;;;;1.60;1.57;;;;;;;18.06;47.23;95557.81;5093970;27;20502;-65
2022/10/20 00:23:25;;;;;;;3.17;2.77;;;;;;;18.44;46.20;95548.81;5109805;28;20538;-71
2022/10/20 00:26:07;;;;;;;0.47;0.47;;;;;;;18.20;46.56;95553.38;5095188;28;20436;-69
2022/10/20 00:28:34;;;;;;;3.10;2.10;;;;;;;18.52;45.58;95550.78;5109745;28;20543;-73
2022/10/20 00:31:03;;;;;;;2.00;1.90;;;;;;;17.37;48.07;95549.63;5094984;28;20992;-64
2022/10/20 00:33:30;;;;;;;0.37;0.33;;;;;;;17.77;47.28;95549.19;5109386;28;20460;-64
2022/10/20 00:35:58;;;;;;;3.03;1.63;;;;;;;17.66;47.13;95543.22;5095279;28;20433;-68
2022/10/20 00:38:26;;;;;;;0.97;0.70;;;;;;;17.57;47.04;95538.81;5088553;28;20535;-68
2022/10/20 00:40:53;;;;;;;1.93;1.83;;;;;;;17.33;47.13;95543.28;5102752;28;20444;-70
2022/10/20 00:43:20;;;;;;;0.50;0.50;;;;;;;17.85;46.21;95537.94;5098893;28;20443;-68
2022/10/20 00:45:55;;;;;;;0.73;0.73;;;;;;;18.22;45.14;95535.31;5109219;28;20564;-71
2022/10/20 00:48:27;;;;;;;1.00;1.00;;;;;;;17.84;45.56;95526.56;5109020;28;20471;-73
2022/10/20 00:50:56;;;;;;;1.17;1.07;;;;;;;17.02;47.63;95534.88;5102543;28;20448;-66
2022/10/20 00:53:27;;;;;;;0.50;0.50;;;;;;;17.52;46.73;95520.31;5102213;28;20813;-70
2022/10/20 00:55:56;;;;;;;0.63;0.50;;;;;;;17.72;45.51;95520.06;5088442;28;20966;-76
2022/10/20 00:58:24;;;;;;;1.23;1.17;;;;;;;17.23;46.18;95528.28;5101804;28;20446;-66
2022/10/20 01:00:56;;;;;;;2.83;1.43;;;;;;;17.59;45.76;95529.50;5108867;28;20433;-71
2022/10/20 01:03:46;;;;;;;0.40;0.40;;;;;;;17.78;45.17;95529.53;5097188;28;20999;-68
2022/10/20 01:06:16;;;;;;;1.23;1.17;;;;;;;17.69;44.76;95515.34;5102643;28;20512;-72
2022/10/20 01:08:51;;;;;;;2.20;2.00;;;;;;;17.98;44.11;95539.88;5108524;28;20479;-67
2022/10/20 01:11:46;;;;;;;0.57;0.57;;;;;;;17.87;43.98;95538.44;5094335;28;21145;-71
2022/10/20 01:14:31;;;;;;;2.23;1.70;;;;;;;17.74;44.45;95539.13;5108438;28;20440;-70
2022/10/20 01:17:45;;;;;;;0.30;0.30;;;;;;;17.92;43.98;95541.00;5112059;28;20524;-68
2022/10/20 01:20:27;;;;;;;1.13;1.13;;;;;;;17.63;44.36;95542.97;5060471;28;20496;-72
2022/10/20 01:23:17;;;;;;;1.30;0.63;;;;;;;17.32;44.67;95542.50;5053591;28;20537;-67
2022/10/20 01:26:15;;;;;;;0.90;0.87;;;;;;;17.79;44.03;95547.81;5088695;28;20437;-78
2022/10/20 01:28:54;;;;;;;0.17;0.17;;;;;;;17.89;43.37;95534.44;5098917;28;20563;-64
2022/10/20 01:31:27;;;;;;;0.33;0.33;;;;;;;18.19;42.62;95541.19;5120730;28;20450;-69
2022/10/20 01:34:04;;;;;;;0.63;0.63;;;;;;;17.99;43.28;95530.88;5113228;28;20504;-69
2022/10/20 01:36:39;;;;;;;1.00;0.97;;;;;;;17.28;44.24;95535.41;5113380;28;20440;-66
2022/10/20 01:39:50;;;;;;;0.30;0.30;;;;;;;17.35;44.34;95533.22;5100525;28;20969;-66
2022/10/20 01:42:22;;;;;;;1.70;1.60;;;;;;;17.08;45.15;95534.53;5093477;28;20437;-68
2022/10/20 01:44:54;;;;;;;0.87;0.87;;;;;;;17.39;44.01;95526.28;5104266;28;20440;-71
2022/10/20 01:47:25;;;;;;;0.07;0.07;;;;;;;17.22;44.68;95527.50;5107318;28;20835;-71
2022/10/20 01:49:54;;;;;;;0.10;0.10;;;;;;;16.98;44.86;95532.00;5104301;28;20477;-65
2022/10/20 01:52:22;;;;;;;0.97;0.53;;;;;;;16.89;44.89;95544.25;5096710;28;20468;-65
2022/10/20 01:54:49;;;;;;;0.20;0.20;;;;;;;16.70;45.61;95534.63;5112588;27;20476;-66
2022/10/20 01:57:31;;;;;;;0.50;0.50;;;;;;;16.98;45.35;95547.88;5112040;28;20527;-72
2022/10/20 02:00:09;;;;;;;0.77;0.77;;;;;;;16.92;45.34;95554.28;5112203;28;20436;-71
2022/10/20 02:03:00;;;;;;;1.93;1.03;;;;;;;16.99;45.53;95553.94;5092647;28;20514;-69
2022/10/20 02:05:53;;;;;;;0.10;0.10;;;;;;;16.99;45.24;95548.66;5091974;28;20524;-69
2022/10/20 02:08:29;;;;;;;0.50;0.50;;;;;;;17.26;44.69;95558.75;5085425;28;20965;-64
2022/10/20 02:11:00;;;;;;;0.20;0.20;;;;;;;17.09;44.87;95554.66;5106827;28;20433;-64
2022/10/20 02:13:29;;;;;;;2.23;0.40;;;;;;;17.09;45.31;95533.47;5091649;28;20433;-71
2022/10/20 02:16:00;;;;;;;1.00;0.97;;;;;;;17.30;44.90;95559.75;5108341;28;20436;-69
2022/10/20 02:18:32;;;;;;;1.30;1.20;;;;;;;17.56;43.67;95563.72;5110774;28;20456;-70
2022/10/20 02:21:01;;;;;;;5.30;1.53;;;;;;;17.28;44.74;95553.94;5097469;27;20457;-70
2022/10/20 02:23:30;;;;;;;1.07;0.70;;;;;;;17.23;44.74;95560.88;5111942;28;20790;-72
2022/10/20 02:26:06;;;;;;;2.10;0.57;;;;;;;16.68;46.30;95574.59;5095061;28;20498;-67
2022/10/20 02:28:36;;;;;;;0.67;0.57;;;;;;;16.71;46.33;95566.13;5091282;28;21050;-68
2022/10/20 02:31:04;;;;;;;0.30;0.30;;;;;;;16.77;46.29;95572.94;5104645;28;20494;-70
2022/10/20 02:33:32;;;;;;;0.60;0.60;;;;;;;16.76;45.84;95571.38;5099154;28;20539;-69
2022/10/20 02:36:02;;;;;;;1.97;0.93;;;;;;;16.70;46.01;95572.47;5110845;28;20450;-73
2022/10/20 02:38:29;;;;;;;0.20;0.20;;;;;;;16.89;45.28;95573.38;5111194;28;20504;-71
2022/10/20 02:40:56;;;;;;;1.40;1.30;;;;;;;16.26;46.74;95576.97;5106835;28;20443;-65
2022/10/20 02:43:23;;;;;;;0.73;0.73;;;;;;;16.49;46.62;95579.00;5090965;28;20447;-72
2022/10/20 02:45:50;;;;;;;1.60;0.93;;;;;;;16.38;47.12;95595.97;5091896;28;20481;-67
2022/10/20 02:48:16;;;;;;;0.30;0.30;;;;;;;15.70;48.22;95588.88;5110957;28;20444;-64
2022/10/20 02:50:43;;;;;;;0.67;0.67;;;;;;;16.07;48.00;95583.97;5095812;28;20447;-69
2022/10/20 02:53:10;;;;;;;1.50;1.40;;;;;;;16.04;47.54;95589.78;5102290;28;20435;-65
2022/10/20 02:55:37;;;;;;;1.33;1.23;;;;;;;15.98;47.76;95585.59;5107216;28;20441;-73
2022/10/20 02:58:04;;;;;;;0.93;0.83;;;;;;;16.34;47.34;95589.63;5100538;28;20433;-68
2022/10/20 03:00:30;;;;;;;0.50;0.50;;;;;;;16.17;47.18;95583.91;5109542;28;20854;-69
2022/10/20 03:02:57;;;;;;;2.93;1.07;;;;;;;16.09;47.28;95597.72;5103238;28;20433;-70
2022/10/20 03:05:25;;;;;;;0.63;0.63;;;;;;;16.14;47.02;95589.75;5105653;28;20448;-74
2022/10/20 03:07:52;;;;;;;1.00;0.90;;;;;;;16.19;46.69;95587.06;5104052;28;20480;-70
2022/10/20 03:10:20;;;;;;;1.27;1.20;;;;;;;15.93;47.61;95593.56;5104456;28;20582;-66
2022/10/20 03:12:47;;;;;;;0.60;0.60;;;;;;;16.14;47.12;95597.69;5111065;28;20467;-69
2022/10/20 03:15:14;;;;;;;1.50;1.27;;;;;;;15.89;47.31;95597.81;5111378;27;21045;-67
2022/10/20 03:17:40;;;;;;;0.73;0.73;;;;;;;15.93;47.57;95598.84;5107117;28;20463;-69
2022/10/20 03:20:08;;;;;;;0.57;0.57;;;;;;;15.99;46.81;95587.16;5091393;28;20540;-70
2022/10/20 03:22:34;;;;;;;0.83;0.83;;;;;;;15.82;47.67;95594.66;5104127;28;20531;-69
2022/10/20 03:25:03;;;;;;;0.40;0.40;;;;;;;15.89;47.69;95593.28;5090167;28;20429;-68
2022/10/20 03:27:31;;;;;;;0.67;0.67;;;;;;;15.73;47.62;95591.00;5089874;28;20445;-67
2022/10/20 03:29:57;;;;;;;1.03;1.03;;;;;;;16.03;47.32;95604.06;5110517;28;20586;-71
2022/10/20 03:32:24;;;;;;;1.90;1.50;;;;;;;15.99;47.72;95603.03;5098309;28;20433;-73
2022/10/20 03:34:51;;;;;;;0.43;0.30;;;;;;;15.34;48.79;95600.59;5109287;28;20955;-68
2022/10/20 03:37:18;;;;;;;0.27;0.27;;;;;;;15.14;50.12;95611.97;5110630;28;20454;-65
2022/10/20 03:39:45;;;;;;;0.73;0.57;;;;;;;15.61;48.50;95609.00;5095326;28;20962;-64
2022/10/20 03:42:14;;;;;;;0.93;0.87;;;;;;;15.62;48.57;95613.25;5095466;28;20524;-67
2022/10/20 03:44:43;;;;;;;0.57;0.57;;;;;;;15.39;48.61;95598.72;5109862;28;20912;-71
2022/10/20 03:47:12;;;;;;;11.30;2.17;;;;;;;15.29;48.87;95600.59;5095796;28;20445;-72
2022/10/20 03:49:39;;;;;;;0.30;0.30;;;;;;;15.29;48.93;95613.81;5096135;28;20567;-66
2022/10/20 03:52:06;;;;;;;0.27;0.27;;;;;;;15.49;49.40;95632.28;5093147;28;20445;-69
2022/10/20 03:54:35;;;;;;;1.43;1.10;;;;;;;15.85;47.93;95629.28;5096109;28;20440;-71
2022/10/20 03:57:02;;;;;;;3.80;1.30;;;;;;;15.94;48.25;95626.84;5090194;28;20495;-73
2022/10/20 03:59:33;;;;;;;1.17;1.17;;;;;;;15.87;48.30;95629.00;5089673;28;20441;-69
2022/10/20 04:02:00;;;;;;;3.40;0.77;;;;;;;15.85;47.77;95621.34;5095740;28;20900;-73
2022/10/20 04:04:27;;;;;;;0.17;0.17;;;;;;;15.42;48.90;95621.97;5094898;28;20455;-69
2022/10/20 04:06:54;;;;;;;1.60;1.17;;;;;;;15.19;49.27;95625.97;5095912;28;20468;-66
2022/10/20 04:09:21;;;;;;;1.20;1.13;;;;;;;15.84;47.55;95616.31;5095015;28;20905;-68
2022/10/20 04:11:48;;;;;;;0.50;0.37;;;;;;;15.63;48.34;95628.00;5098166;28;20447;-69
2022/10/20 04:14:14;;;;;;;0.10;0.10;;;;;;;15.61;48.56;95632.78;5089141;28;20571;-66
2022/10/20 04:16:41;;;;;;;0.67;0.67;;;;;;;15.97;47.62;95626.31;5098919;28;20440;-67
2022/10/20 04:19:08;;;;;;;0.30;0.30;;;;;;;15.94;47.69;95632.94;5094968;28;20494;-67
2022/10/20 04:21:35;;;;;;;0.20;0.20;;;;;;;16.29;46.54;95626.69;5101779;28;20846;-68
2022/10/20 04:24:04;;;;;;;0.50;0.50;;;;;;;16.34;46.97;95631.16;5103740;28;20799;-68
2022/10/20 04:26:31;;;;;;;0.50;0.50;;;;;;;16.31;47.09;95629.06;5095645;28;20448;-66
2022/10/20 04:28:57;;;;;;;1.70;1.30;;;;;;;15.91;48.18;95635.34;5097099;28;20487;-69
2022/10/20 04:31:24;;;;;;;0.60;0.60;;;;;;;15.88;48.15;95643.78;5103387;28;20469;-69
2022/10/20 04:33:51;;;;;;;1.87;1.70;;;;;;;16.27;46.51;95631.47;5100183;28;20440;-65
2022/10/20 04:36:18;;;;;;;3.83;1.50;;;;;;;16.42;46.11;95634.03;5092128;28;20524;-71
2022/10/20 04:38:45;;;;;;;0.20;0.20;;;;;;;16.03;47.12;95635.81;5096735;28;20942;-69
2022/10/20 04:41:12;;;;;;;4.90;1.80;;;;;;;15.93;47.60;95630.56;5102223;28;20472;-72
2022/10/20 04:43:39;;;;;;;0.33;0.33;;;;;;;15.55;48.77;95644.41;5109711;28;20452;-69
2022/10/20 04:46:05;;;;;;;0.80;0.80;;;;;;;15.84;48.10;95645.38;5103704;28;20516;-68
2022/10/20 04:48:36;;;;;;;0.87;0.87;;;;;;;15.67;48.84;95639.63;5088118;28;20452;-67
2022/10/20 04:51:08;;;;;;;1.83;1.33;;;;;;;15.84;48.74;95640.09;5096484;28;20944;-64
2022/10/20 04:53:35;;;;;;;11.17;5.37;;;;;;;16.01;47.62;95635.28;5091046;28;20436;-69
2022/10/20 04:56:04;;;;;;;3.23;2.93;;;;;;;16.06;48.61;95643.19;5097083;28;20428;-68
2022/10/20 04:58:31;;;;;;;1.00;1.00;;;;;;;16.40;48.78;95652.03;5097678;28;20441;-67
2022/10/20 05:01:07;;;;;;;4.57;2.00;;;;;;;16.50;46.96;95646.69;5105598;28;20449;-68
2022/10/20 05:03:35;;;;;;;1.30;1.20;;;;;;;16.26;47.16;95652.91;5091293;28;20560;-69
2022/10/20 05:06:17;;;;;;;2.00;1.40;;;;;;;15.69;47.84;95650.72;5096402;28;20946;-69
2022/10/20 05:08:47;;;;;;;0.20;0.20;;;;;;;15.54;48.55;95658.69;5112108;28;20518;-65
2022/10/20 05:11:15;;;;;;;0.93;0.90;;;;;;;15.41;48.93;95656.59;5091768;28;20441;-68
2022/10/20 05:13:43;;;;;;;0.60;0.60;;;;;;;15.73;48.54;95663.13;5091582;28;20560;-68
2022/10/20 05:16:10;;;;;;;0.83;0.80;;;;;;;15.62;48.42;95666.06;5110316;28;21167;-67
2022/10/20 05:18:39;;;;;;;0.50;0.50;;;;;;;16.03;47.61;95657.75;5111690;28;20448;-68
2022/10/20 05:21:10;;;;;;;0.40;0.40;;;;;;;15.98;47.93;95670.19;5107955;28;20444;-65
2022/10/20 05:23:39;;;;;;;0.37;0.37;;;;;;;15.70;48.33;95676.88;5101478;28;20463;-68
2022/10/20 05:26:09;;;;;;;0.50;0.50;;;;;;;15.89;47.91;95675.22;5097334;28;20524;-69
2022/10/20 05:28:36;;;;;;;0.47;0.47;;;;;;;15.80;48.50;95682.13;5116033;28;20528;-72
2022/10/20 05:31:04;;;;;;;0.30;0.30;;;;;;;15.38;49.26;95686.16;5096206;28;20519;-66
2022/10/20 05:33:32;;;;;;;0.67;0.67;;;;;;;15.37;49.57;95687.19;5091027;28;20501;-64
2022/10/20 05:35:59;;;;;;;1.50;1.40;;;;;;;15.74;48.83;95696.44;5104915;28;20970;-70
2022/10/20 05:38:26;;;;;;;2.03;1.93;;;;;;;15.71;48.81;95701.47;5105344;28;20437;-71
2022/10/20 05:40:53;;;;;;;3.40;1.80;;;;;;;15.49;49.56;95708.88;5096988;28;20437;-70
2022/10/20 05:43:19;;;;;;;0.20;0.20;;;;;;;15.60;48.78;95715.75;5099308;28;21016;-70
2022/10/20 05:45:52;;;;;;;1.43;0.97;;;;;;;15.93;48.76;95717.78;5103381;28;147914;-66
2022/10/20 05:48:19;;;;;;;0.60;0.60;;;;;;;16.56;47.32;95724.19;5100629;28;20444;-71
2022/10/20 05:50:46;;;;;;;1.13;1.03;;;;;;;15.98;48.24;95725.72;5099578;28;20496;-69
2022/10/20 05:53:13;;;;;;;0.80;0.80;;;;;;;16.05;47.63;95734.13;5102453;28;20447;-72
2022/10/20 05:55:40;;;;;;;0.40;0.40;;;;;;;16.04;47.96;95729.91;5108100;28;20438;-69
2022/10/20 05:58:06;;;;;;;0.70;0.70;;;;;;;15.63;49.47;95752.19;5091408;28;20502;-70
2022/10/20 06:00:40;;;;;;;0.30;0.30;;;;;;;15.65;48.78;95740.31;5108003;28;21005;-66
2022/10/20 06:03:07;;;;;;;0.17;0.17;;;;;;;16.33;47.55;95741.44;5102203;28;20445;-69
2022/10/20 06:05:34;;;;;;;0.17;0.17;;;;;;;15.95;48.51;95757.94;5091218;28;20528;-69
2022/10/20 06:08:01;;;;;;;0.30;0.30;;;;;;;16.25;47.78;95765.81;5099533;28;20440;-71
2022/10/20 06:10:28;;;;;;;0.50;0.47;;;;;;;16.48;47.69;95765.22;5096302;28;20485;-70
2022/10/20 06:12:55;;;;;;;1.37;1.10;;;;;;;16.24;48.27;95769.50;5096469;28;20440;-69
2022/10/20 06:15:21;;;;;;;3.03;1.43;;;;;;;16.64;47.51;95771.25;5099591;28;20444;-69
2022/10/20 06:17:48;;;;;;;0.20;0.20;;;;;;;16.59;47.53;95769.41;5110213;28;20443;-66
2022/10/20 06:20:15;;;;;;;1.00;0.97;;;;;;;16.17;47.97;95763.72;5101447;28;20569;-70
2022/10/20 06:22:42;;;;;;;1.70;1.23;;;;;;;16.57;47.83;95771.53;5105814;28;20444;-69
2022/10/20 06:25:09;;;;;;;1.80;1.67;;;;;;;16.78;47.58;95767.75;5100776;28;20440;-71
2022/10/20 06:27:36;;;;;;;0.50;0.50;;;;;;;16.68;47.78;95775.72;5111840;28;20535;-69
2022/10/20 06:30:03;;;;;;;0.23;0.23;;;;;;;16.95;47.07;95786.69;5111752;28;20508;-70
2022/10/20 06:32:30;;;;;;;1.60;1.50;;;;;;;16.13;48.97;95789.09;5111628;28;20468;-73
2022/10/20 06:34:56;;;;;;;0.30;0.30;;;;;;;16.85;47.48;95780.69;5111932;28;20527;-70
2022/10/20 06:37:23;;;;;;;1.13;1.10;;;;;;;16.82;47.85;95792.59;5112637;28;20829;-71
2022/10/20 06:39:50;;;;;;;0.23;0.23;;;;;;;16.81;47.55;95787.56;5097342;28;20475;-71
2022/10/20 06:42:17;;;;;;;1.17;1.03;;;;;;;16.66;48.16;95792.97;5095775;28;20476;-67
2022/10/20 06:44:44;;;;;;;0.97;0.93;;;;;;;16.89;47.54;95785.16;5091140;28;20494;-68
2022/10/20 06:47:10;;;;;;;3.23;1.30;;;;;;;16.90;47.61;95797.31;5104748;28;20439;-66
2022/10/20 06:49:37;;;;;;;2.30;1.87;;;;;;;16.77;48.03;95800.56;5105021;28;20555;-67
2022/10/20 06:52:04;;;;;;;1.27;1.17;;;;;;;16.70;48.31;95800.06;5092707;28;20498;-68
2022/10/20 06:54:31;;;;;;;0.13;0.13;;;;;;;16.87;47.26;95805.03;5102518;28;20447;-65
2022/10/20 06:56:58;;;;;;;1.37;1.27;;;;;;;17.43;47.03;95797.53;5090227;28;21049;-67
2022/10/20 06:59:25;;;;;;;1.50;0.90;;;;;;;17.20;47.23;95805.13;5097736;28;20526;-66
2022/10/20 07:01:52;;;;;;;0.77;0.77;;;;;;;17.60;46.50;95803.28;5110908;28;20455;-67
2022/10/20 07:04:19;;;;;;;1.17;0.80;;;;;;;17.53;46.66;95793.00;5096468;28;20428;-67
2022/10/20 07:06:46;;;;;;;0.27;0.27;;;;;;;17.60;46.38;95797.97;5099184;28;20903;-66
2022/10/20 07:09:16;;;;;;;2.40;1.80;;;;;;;17.54;46.66;95804.38;5104570;28;20465;-66
2022/10/20 07:11:43;;;;;;;1.07;1.03;;;;;;;17.52;46.47;95806.50;5100678;28;20452;-69
2022/10/20 07:14:13;;;;;;;0.77;0.50;;;;;;;17.41;46.41;95802.34;5107317;28;20448;-68
2022/10/20 07:16:40;;;;;;;0.60;0.60;;;;;;;17.86;45.61;95802.00;5090397;28;20467;-69
2022/10/20 07:19:07;;;;;;;1.13;1.13;;;;;;;17.73;45.06;95798.13;5105295;28;20467;-68
2022/10/20 07:21:35;;;;;;;1.63;1.53;;;;;;;18.03;45.31;95810.31;5110608;28;20436;-68
2022/10/20 07:24:06;;;;;;;1.13;1.03;;;;;;;17.82;45.25;95806.28;5110222;28;20955;-70
2022/10/20 07:26:35;;;;;;;0.50;0.50;;;;;;;17.89;44.98;95807.53;5110539;28;20437;-66
2022/10/20 07:29:03;;;;;;;0.20;0.20;;;;;;;18.06;44.43;95796.50;5097912;28;20442;-66
2022/10/20 07:31:39;;;;;;;0.80;0.80;;;;;;;18.40;43.97;95801.72;5088440;28;20925;-67
2022/10/20 07:34:08;;;;;;;1.47;1.37;;;;;;;18.27;44.12;95797.88;5090409;28;20440;-67
2022/10/20 07:36:54;;;;;;;0.57;0.57;;;;;;;18.20;43.70;95798.22;5099603;28;20452;-68
2022/10/20 07:39:22;;;;;;;0.70;0.70;;;;;;;17.61;44.82;95800.34;5097340;27;20461;-65
2022/10/20 07:41:49;;;;;;;0.27;0.27;;;;;;;17.66;45.35;95796.88;5092675;28;20453;-67
2022/10/20 07:44:16;;;;;;;0.73;0.73;;;;;;;18.34;43.74;95803.63;5093869;28;20440;-68
2022/10/20 07:46:43;;;;;;;0.63;0.63;;;;;;;18.64;43.01;95792.72;5099568;28;20528;-68
2022/10/20 07:49:10;;;;;;;0.90;0.90;;;;;;;18.08;43.82;95794.38;5088326;28;20559;-68
2022/10/20 07:51:57;;;;;;;2.50;1.57;;;;;;;18.54;43.04;95795.50;5089594;28;20455;-67
2022/10/20 07:54:24;;;;;;;0.93;0.93;;;;;;;18.65;43.10;95799.59;5089571;28;20514;-66
2022/10/20 07:56:50;;;;;;;0.70;0.70;;;;;;;17.60;43.96;95787.38;5103191;28;20460;-69
2022/10/20 07:59:17;;;;;;;1.03;1.03;;;;;;;17.81;44.14;95784.25;5103894;28;20528;-64
2022/10/20 08:01:45;;;;;;;3.13;1.77;;;;;;;17.90;43.96;95792.44;5089233;28;20449;-69
2022/10/20 08:04:12;;;;;;;1.13;1.00;;;;;;;18.45;43.30;95793.75;5107880;28;20493;-68
2022/10/20 08:06:39;;;;;;;0.20;0.20;;;;;;;18.57;42.42;95786.97;5109494;28;20455;-70
2022/10/20 08:09:06;;;;;;;1.97;1.43;;;;;;;18.71;41.89;95787.88;5107128;28;20436;-68
2022/10/20 08:11:33;;;;;;;0.83;0.83;;;;;;;19.09;41.04;95794.78;5098173;28;20592;-70
2022/10/20 08:14:00;;;;;;;1.47;1.37;;;;;;;19.58;40.07;95790.94;5109214;28;20897;-67
2022/10/20 08:16:27;;;;;;;0.80;0.80;;;;;;;18.47;41.32;95803.00;5095168;28;20472;-69
2022/10/20 08:19:08;;;;;;;0.17;0.17;;;;;;;18.67;41.15;95797.47;5106623;28;20450;-69
2022/10/20 08:21:52;;;;;;;0.30;0.30;;;;;;;18.70;40.89;95786.25;5088751;28;20502;-69
2022/10/20 08:24:19;;;;;;;0.70;0.70;;;;;;;19.01;40.29;95784.78;5105665;28;20458;-69
2022/10/20 08:26:45;;;;;;;1.03;1.03;;;;;;;18.82;40.76;95786.66;5101409;28;20522;-70
2022/10/20 08:29:13;;;;;;;0.83;0.80;;;;;;;18.21;41.11;95786.53;5103153;28;20543;-67
2022/10/20 08:31:40;;;;;;;0.57;0.40;;;;;;;18.39;41.18;95790.34;5095295;28;21012;-66
2022/10/20 08:34:07;;;;;;;0.40;0.40;;;;;;;17.93;41.72;95782.06;5095069;28;20474;-73
2022/10/20 08:36:36;;;;;;;0.57;0.57;;;;;;;17.95;41.36;95781.75;5103168;28;20494;-71
2022/10/20 08:39:03;;;;;;;0.07;0.07;;;;;;;18.00;41.24;95781.72;5100142;28;20519;-71
2022/10/20 08:41:36;;;;;;;0.70;0.70;;;;;;;18.36;40.91;95779.47;5100178;28;20528;-64
2022/10/20 08:44:28;;;;;;;0.40;0.40;;;;;;;17.76;41.27;95780.88;5089187;28;20970;-69
2022/10/20 08:46:55;;;;;;;0.80;0.60;;;;;;;18.53;40.26;95774.53;5100711;28;20882;-70
2022/10/20 08:49:26;;;;;;;0.77;0.77;;;;;;;18.86;39.51;95777.06;5108883;28;20536;-70
2022/10/20 08:51:53;;;;;;;1.00;0.97;;;;;;;19.21;38.26;95776.56;5094205;28;20495;-69
2022/10/20 08:54:20;;;;;;;0.40;0.40;;;;;;;19.36;38.06;95766.81;5101800;28;20538;-68
2022/10/20 08:56:47;;;;;;;1.47;1.03;;;;;;;19.21;37.53;95757.94;5102272;28;20509;-69
2022/10/20 08:59:36;;;;;;;0.30;0.30;;;;;;;18.51;39.14;95777.47;5095460;28;20456;-69
2022/10/20 09:02:14;;;;;;;0.70;0.70;;;;;;;18.75;38.99;95777.47;5109153;28;20452;-72
2022/10/20 09:04:57;;;;;;;0.27;0.27;;;;;;;19.73;37.53;95766.75;5109232;28;20447;-68
2022/10/20 09:07:31;;;;;;;2.07;1.33;;;;;;;20.06;36.62;95776.28;5109675;28;20486;-70
2022/10/20 09:10:23;;;;;;;0.50;0.50;;;;;;;19.49;36.36;95782.03;5099584;28;20524;-69
2022/10/20 09:12:51;;;;;;;0.93;0.93;;;;;;;19.59;36.88;95771.25;5108638;28;20436;-68
2022/10/20 09:15:20;;;;;;;0.53;0.47;;;;;;;20.01;36.26;95784.38;5109405;28;20444;-70
2022/10/20 09:18:08;;;;;;;0.30;0.30;;;;;;;19.83;36.03;95782.56;5104663;28;20445;-69
2022/10/20 09:20:51;;;;;;;0.47;0.47;;;;;;;20.36;34.64;95773.13;5089233;28;20497;-69
2022/10/20 09:23:22;;;;;;;0.20;0.20;;;;;;;20.77;34.36;95770.41;5096696;28;20472;-70
2022/10/20 09:26:21;;;;;;;0.30;0.30;;;;;;;20.16;34.49;95782.22;5094724;28;20530;-67
2022/10/20 09:29:20;;;;;;;0.50;0.50;;;;;;;21.03;33.53;95780.28;5095697;28;20447;-69
2022/10/20 09:31:53;;;;;;;0.30;0.30;;;;;;;22.00;31.83;95771.66;5088461;28;20469;-69
2022/10/20 09:34:25;;;;;;;0.47;0.37;;;;;;;22.05;31.92;95782.97;5103091;28;20445;-69
2022/10/20 09:36:59;;;;;;;0.10;0.10;;;;;;;21.85;31.61;95774.69;5108923;28;21079;-68
2022/10/20 09:39:28;;;;;;;0.20;0.20;;;;;;;21.24;31.52;95769.19;5098643;28;20451;-65
2022/10/20 09:42:11;;;;;;;0.40;0.40;;;;;;;21.17;31.90;95759.72;5100046;28;20444;-69
2022/10/20 09:45:01;;;;;;;0.53;0.53;;;;;;;21.92;31.19;95764.38;5103832;28;20492;-69
2022/10/20 09:47:28;;;;;;;0.10;0.10;;;;;;;21.67;31.31;95762.28;5112571;28;20870;-71
2022/10/20 09:49:59;;;;;;;0.37;0.37;;;;;;;21.82;31.15;95759.28;5104014;28;20552;-70
2022/10/20 09:52:32;;;;;;;0.40;0.40;;;;;;;22.02;31.38;95758.78;5097502;28;20460;-70
2022/10/20 09:55:06;;;;;;;0.83;0.83;;;;;;;21.34;30.50;95758.28;5112553;28;20455;-64
2022/10/20 09:57:33;;;;;;;1.03;0.60;;;;;;;21.43;30.59;95757.25;5112133;28;20440;-68
2022/10/20 10:00:00;;;;;;;0.20;0.20;;;;;;;20.54;32.02;95761.56;5100639;28;20521;-69
2022/10/20 10:02:47;;;;;;;0.10;0.10;;;;;;;20.95;31.44;95759.63;5090950;28;20437;-72
2022/10/20 10:05:19;;;;;;;0.23;0.23;;;;;;;21.73;31.51;95750.41;5105445;28;20482;-74
2022/10/20 10:07:57;;;;;;;0.53;0.53;;;;;;;21.85;30.65;95748.78;5098290;28;20524;-71
2022/10/20 10:10:28;;;;;;;0.10;0.10;;;;;;;22.10;29.67;95750.00;5098092;28;20468;-67
2022/10/20 10:12:59;;;;;;;0.33;0.33;;;;;;;21.98;30.33;95741.78;5092232;28;20484;-69
2022/10/20 10:15:33;;;;;;;0.10;0.10;;;;;;;21.89;29.20;95747.09;5105020;28;20482;-68
2022/10/20 10:18:13;;;;;;;0.83;0.47;;;;;;;21.89;31.11;95733.75;5111842;28;20447;-70
2022/10/20 10:20:40;;;;;;;11.73;1.53;;;;;;;21.93;30.50;95728.59;5098021;28;20444;-69
2022/10/20 10:23:23;;;;;;;0.20;0.20;;;;;;;22.58;29.14;95737.53;5096431;28;20194;-71
2022/10/20 10:25:51;;;;;;;1.87;0.67;;;;;;;22.83;27.94;95728.75;5097600;28;20206;-71
2022/10/20 10:28:31;;;;;;;0.60;0.60;;;;;;;22.69;28.68;95728.13;5106021;28;20483;-70
2022/10/20 10:31:22;;;;;;;0.20;0.20;;;;;;;22.48;28.99;95728.97;5094748;27;20298;-71
2022/10/20 10:33:53;;;;;;;0.40;0.40;;;;;;;22.41;29.14;95725.97;5091224;28;20936;-71
2022/10/20 10:36:28;;;;;;;0.27;0.27;;;;;;;22.23;29.28;95722.44;5093267;28;20476;-71
2022/10/20 10:38:57;;;;;;;1.27;1.03;;;;;;;22.03;28.48;95717.63;5110127;27;20316;-67
2022/10/20 10:41:36;;;;;;;0.60;0.30;;;;;;;22.03;28.91;95722.97;5111671;27;20190;-70
2022/10/20 10:44:24;;;;;;;1.13;0.60;;;;;;;22.08;29.59;95715.63;5123152;27;20443;-71
2022/10/20 10:47:23;;;;;;;2.83;0.90;;;;;;;22.18;29.28;95717.25;5105072;27;20238;-72
2022/10/20 10:50:28;;;;;;;0.20;0.20;;;;;;;22.15;29.71;95715.19;5087971;28;20449;-70
2022/10/20 10:53:07;;;;;;;0.77;0.77;;;;;;;22.18;29.45;95711.91;5103813;28;20266;-72
2022/10/20 10:56:17;;;;;;;0.27;0.27;;;;;;;22.63;29.26;95709.84;5110389;28;20646;-72
2022/10/20 10:59:16;;;;;;;0.83;0.83;;;;;;;22.54;29.10;95701.00;5112310;27;20634;-70
2022/10/20 11:02:15;;;;;;;0.40;0.40;;;;;;;22.36;29.00;95702.06;5096494;27;21886;-73
2022/10/20 11:05:15;;;;;;;0.73;0.73;;;;;;;22.49;28.54;95704.63;5095042;28;20222;-71
2022/10/20 11:08:03;;;;;;;0.10;0.10;;;;;;;22.54;28.33;95701.00;5098115;28;20556;-70
2022/10/20 11:10:49;;;;;;;4.67;0.47;;;;;;;22.39;28.42;95710.25;5103356;28;20352;-71
2022/10/20 11:13:21;;;;;;;0.13;0.13;;;;;;;22.59;27.62;95693.66;5105087;27;20195;-68
2022/10/20 11:16:30;;;;;;;0.40;0.40;;;;;;;22.09;26.93;95689.72;5103798;28;20194;-70
2022/10/20 11:19:29;;;;;;;0.43;0.43;;;;;;;22.10;27.58;95691.28;5094701;28;20461;-69
2022/10/20 11:22:14;;;;;;;0.20;0.20;;;;;;;22.15;27.92;95678.59;5094117;27;20190;-70
2022/10/20 11:24:44;;;;;;;0.57;0.57;;;;;;;22.02;28.41;95673.38;5109908;28;20432;-70
2022/10/20 11:27:14;;;;;;;0.37;0.37;;;;;;;22.56;28.40;95672.94;5103182;28;20251;-70
2022/10/20 11:29:44;;;;;;;0.53;0.50;;;;;;;22.33;27.93;95667.97;5095613;28;20487;-70
2022/10/20 11:32:25;;;;;;;0.43;0.43;;;;;;;22.27;28.12;95678.00;5110189;28;20586;-62
2022/10/20 11:35:03;;;;;;;0.40;0.40;;;;;;;21.72;28.89;95679.47;5104326;28;20657;-67
2022/10/20 11:37:37;;;;;;;0.30;0.30;;;;;;;21.91;28.56;95669.41;5102372;28;20538;-68
2022/10/20 11:40:21;;;;;;;0.40;0.40;;;;;;;22.33;27.34;95670.66;5089275;28;20191;-64
2022/10/20 11:43:06;;;;;;;0.20;0.20;;;;;;;22.20;26.94;95653.66;5093230;28;20250;-65
2022/10/20 11:45:48;;;;;;;0.30;0.30;;;;;;;22.51;27.39;95659.69;5096118;28;20505;-71
2022/10/20 11:48:37;;;;;;;0.40;0.40;;;;;;;21.97;28.00;95657.47;5109525;27;20447;-67
2022/10/20 11:51:38;;;;;;;0.47;0.47;;;;;;;22.48;27.73;95654.19;5092769;28;20226;-63
2022/10/20 11:54:16;;;;;;;0.47;0.47;;;;;;;22.70;27.37;95657.53;5089465;28;20978;-68
2022/10/20 11:56:44;;;;;;;0.70;0.33;;;;;;;23.20;27.57;95652.50;5107106;28;20436;-69
2022/10/20 11:59:26;;;;;;;0.57;0.57;;;;;;;23.43;26.54;95648.56;5097779;28;20195;-67